Time;durP1;ratioP1;P1;durP2;ratioP2;P2;SDS_P1;SDS_P2;PMS_P1;PMS_P2;Temp;Humidity;BMP_temperature;BMP_pressure;BME280_temperature;BME280_humidity;BME280_pressure;Samples;Min_cycle;Max_cycle;Signal;HPM_P1;HPM_P2
2022/12/08 00:00:42;;;;;;;2.95;0.50;;;2.80;99.90;;;;;;5116670;28;20042;-67
2022/12/08 00:03:08;;;;;;;2.42;0.50;;;2.90;99.90;;;;;;5134496;28;20548;-67
2022/12/08 00:11:02;;;;;;;2.67;0.60;;;3.60;99.90;;;;;;5117083;28;20051;-68
2022/12/08 00:13:28;;;;;;;3.00;0.60;;;3.90;99.90;;;;;;5134429;28;20051;-68
2022/12/08 00:15:59;;;;;;;2.30;0.65;;;3.50;99.90;;;;;;5134422;28;20039;-68
2022/12/08 00:18:25;;;;;;;3.60;0.70;;;3.30;99.90;;;;;;5135338;28;20553;-68
2022/12/08 00:20:57;;;;;;;1.67;0.60;;;3.30;99.90;;;;;;5134332;28;20262;-69
2022/12/08 00:23:23;;;;;;;3.03;0.60;;;3.10;99.90;;;;;;5099125;28;20047;-69
2022/12/08 00:25:49;;;;;;;2.20;0.60;;;3.20;99.90;;;;;;5116030;28;20053;-69
2022/12/08 00:28:15;;;;;;;3.60;0.50;;;3.20;99.90;;;;;;5134380;28;20047;-68
2022/12/08 00:30:41;;;;;;;4.72;0.65;;;3.50;99.90;;;;;;5116001;28;20050;-69
2022/12/08 00:33:08;;;;;;;3.13;0.68;;;4.20;99.90;;;;;;5134277;28;20055;-68
2022/12/08 00:35:34;;;;;;;3.03;0.43;;;3.70;99.90;;;;;;5134215;28;20078;-68
2022/12/08 00:38:00;;;;;;;1.95;0.40;;;3.60;99.90;;;;;;5116041;28;20088;-69
2022/12/08 00:40:25;;;;;;;1.52;0.40;;;3.50;99.90;;;;;;5115789;28;20039;-69
2022/12/08 00:42:51;;;;;;;1.95;0.40;;;3.00;99.90;;;;;;5115904;28;20043;-68
2022/12/08 00:45:17;;;;;;;2.35;0.47;;;3.20;99.90;;;;;;5115767;28;20043;-69
2022/12/08 00:47:43;;;;;;;1.55;0.30;;;3.40;99.90;;;;;;5116834;28;20459;-68
2022/12/08 00:50:09;;;;;;;2.05;0.60;;;2.80;99.90;;;;;;5116406;28;20190;-68
2022/12/08 00:52:35;;;;;;;1.65;0.30;;;3.60;99.90;;;;;;5134052;28;20051;-68
2022/12/08 00:55:01;;;;;;;0.95;0.30;;;4.10;99.90;;;;;;5134060;28;20043;-68
2022/12/08 00:57:27;;;;;;;0.77;0.30;;;2.70;99.90;;;;;;5133599;28;20074;-68
2022/12/08 00:59:52;;;;;;;2.55;0.20;;;2.90;99.90;;;;;;5134006;28;20054;-68
2022/12/08 01:02:18;;;;;;;4.10;0.40;;;3.70;99.90;;;;;;5115749;28;20043;-68
2022/12/08 01:04:44;;;;;;;1.75;0.30;;;2.90;99.90;;;;;;5133871;28;20047;-68
2022/12/08 01:07:09;;;;;;;0.82;0.30;;;2.90;99.90;;;;;;5134535;28;20079;-68
2022/12/08 01:09:35;;;;;;;2.95;0.40;;;3.10;99.90;;;;;;5116270;27;20051;-68
2022/12/08 01:12:01;;;;;;;1.35;0.30;;;3.20;99.90;;;;;;5119286;27;20047;-68
2022/12/08 01:14:27;;;;;;;1.92;0.35;;;3.70;99.90;;;;;;5136863;27;20122;-68
2022/12/08 01:16:52;;;;;;;1.88;0.40;;;3.20;99.90;;;;;;5119354;27;20091;-68
2022/12/08 01:19:18;;;;;;;0.88;0.40;;;2.80;99.90;;;;;;5119110;27;20049;-68
2022/12/08 01:21:44;;;;;;;1.02;0.30;;;2.90;99.90;;;;;;5119096;27;20086;-68
2022/12/08 01:24:15;;;;;;;1.77;0.30;;;2.90;99.90;;;;;;5119921;27;20043;-68
2022/12/08 01:26:42;;;;;;;0.57;0.30;;;3.10;99.90;;;;;;5137371;27;20090;-68
2022/12/08 01:29:08;;;;;;;1.45;0.40;;;3.30;99.90;;;;;;5137506;27;20047;-68
2022/12/08 01:31:35;;;;;;;0.93;0.40;;;2.70;99.90;;;;;;5137481;27;20049;-68
2022/12/08 01:34:00;;;;;;;0.82;0.30;;;3.20;99.90;;;;;;5137143;27;20058;-68
2022/12/08 01:36:29;;;;;;;1.35;0.30;;;3.20;99.90;;;;;;5137084;27;20051;-68
2022/12/08 01:38:58;;;;;;;0.57;0.30;;;3.50;99.90;;;;;;5118900;27;20047;-68
2022/12/08 01:41:26;;;;;;;1.15;0.32;;;3.10;99.90;;;;;;5136854;27;20099;-68
2022/12/08 01:43:59;;;;;;;0.98;0.30;;;3.40;99.90;;;;;;5137434;27;20100;-68
2022/12/08 01:46:26;;;;;;;1.05;0.32;;;3.00;99.90;;;;;;5137540;27;20120;-68
2022/12/08 01:48:57;;;;;;;1.17;0.30;;;2.80;99.90;;;;;;5136872;27;20043;-67
2022/12/08 01:51:24;;;;;;;1.83;0.30;;;3.10;99.90;;;;;;5119541;27;20371;-68
2022/12/08 01:53:50;;;;;;;3.67;0.28;;;4.10;99.90;;;;;;5119000;27;20081;-68
2022/12/08 01:56:30;;;;;;;1.95;0.20;;;2.90;99.90;;;;;;5136561;27;20047;-68
2022/12/08 01:58:56;;;;;;;3.05;0.30;;;2.90;99.90;;;;;;5119456;27;20437;-68
2022/12/08 02:01:22;;;;;;;0.77;0.22;;;3.40;99.90;;;;;;5118793;27;20042;-68
2022/12/08 02:03:50;;;;;;;3.25;0.20;;;3.90;99.90;;;;;;5136527;27;20043;-68
2022/12/08 02:06:18;;;;;;;1.33;0.28;;;3.60;99.90;;;;;;5136549;27;20096;-68
2022/12/08 02:08:45;;;;;;;0.75;0.30;;;2.80;99.90;;;;;;5101469;27;20184;-67
2022/12/08 02:11:12;;;;;;;1.35;0.82;;;3.00;99.90;;;;;;5136304;27;20047;-68
2022/12/08 02:13:40;;;;;;;0.57;0.20;;;3.60;99.90;;;;;;5136386;27;20047;-68
2022/12/08 02:16:10;;;;;;;0.93;0.20;;;3.10;99.90;;;;;;5117891;27;20130;-69
2022/12/08 02:18:39;;;;;;;2.42;0.25;;;3.20;99.90;;;;;;5136264;27;20436;-68
2022/12/08 02:21:17;;;;;;;2.10;0.28;;;2.90;99.90;;;;;;5135922;27;20049;-68
2022/12/08 02:24:04;;;;;;;1.60;0.20;;;2.80;99.90;;;;;;5136153;27;20043;-68
2022/12/08 02:27:08;;;;;;;0.93;0.28;;;3.00;99.90;;;;;;5136795;27;20087;-69
2022/12/08 02:29:43;;;;;;;;;;;3.60;99.90;;;;;;5135993;27;20043;-69
2022/12/08 02:32:27;;;;;;;3.38;0.20;;;3.00;99.90;;;;;;5136071;27;20089;-69
2022/12/08 02:35:09;;;;;;;0.80;0.20;;;3.00;99.90;;;;;;5135982;27;20036;-68
2022/12/08 02:37:53;;;;;;;1.58;0.25;;;3.70;99.90;;;;;;5118108;27;20077;-69
2022/12/08 02:40:29;;;;;;;2.42;0.40;;;3.10;99.90;;;;;;5135920;27;20051;-67
2022/12/08 02:43:02;;;;;;;0.80;0.28;;;2.90;99.90;;;;;;5117817;27;20061;-67
2022/12/08 02:45:40;;;;;;;1.73;0.35;;;3.80;99.90;;;;;;5136269;27;20050;-67
2022/12/08 02:48:08;;;;;;;2.63;0.55;;;3.30;99.90;;;;;;5135530;27;20060;-67
2022/12/08 02:50:33;;;;;;;1.92;0.60;;;3.40;99.90;;;;;;5135618;27;20051;-67
2022/12/08 02:53:01;;;;;;;6.60;1.05;;;3.00;99.90;;;;;;5117228;27;20039;-67
2022/12/08 02:55:46;;;;;;;1.60;0.68;;;3.50;99.90;;;;;;5135578;27;20035;-67
2022/12/08 02:58:35;;;;;;;5.03;0.85;;;2.80;99.90;;;;;;5117676;27;20047;-66
2022/12/08 03:01:16;;;;;;;2.55;0.70;;;3.40;99.90;;;;;;5117680;27;20054;-66
2022/12/08 03:03:58;;;;;;;2.35;0.50;;;2.60;99.90;;;;;;5135372;27;20050;-67
2022/12/08 03:06:40;;;;;;;1.23;0.70;;;3.80;99.90;;;;;;5135952;27;20054;-67
2022/12/08 03:09:13;;;;;;;1.30;0.55;;;2.00;99.90;;;;;;5135389;27;20039;-66
2022/12/08 03:11:57;;;;;;;2.03;0.60;;;3.20;99.90;;;;;;5135238;27;20042;-66
2022/12/08 03:14:23;;;;;;;1.25;0.60;;;2.90;99.90;;;;;;5134957;27;20552;-67
2022/12/08 03:16:54;;;;;;;0.65;0.60;;;3.20;99.90;;;;;;5135742;27;20047;-66
2022/12/08 03:19:27;;;;;;;1.92;0.50;;;2.60;99.90;;;;;;5117126;27;20088;-67
2022/12/08 03:22:02;;;;;;;2.25;0.40;;;2.60;99.90;;;;;;5135688;27;20075;-66
2022/12/08 03:24:33;;;;;;;0.98;0.30;;;3.00;99.90;;;;;;5135002;27;20471;-66
2022/12/08 03:27:04;;;;;;;0.80;0.30;;;2.80;99.90;;;;;;5135373;27;20183;-66
2022/12/08 03:29:31;;;;;;;0.40;0.20;;;3.00;99.90;;;;;;5117272;27;20062;-67
2022/12/08 03:32:12;;;;;;;0.43;0.30;;;2.80;99.90;;;;;;5134462;27;20047;-66
2022/12/08 03:34:41;;;;;;;0.82;0.20;;;3.10;99.90;;;;;;5135465;27;20043;-66
2022/12/08 03:37:06;;;;;;;0.38;0.28;;;3.20;99.90;;;;;;5134952;27;20047;-66
2022/12/08 03:39:32;;;;;;;0.85;0.25;;;3.30;99.90;;;;;;5116508;27;20039;-66
2022/12/08 03:41:58;;;;;;;0.30;0.20;;;3.70;99.90;;;;;;5135517;27;20043;-66
2022/12/08 03:44:23;;;;;;;0.38;0.30;;;3.20;99.90;;;;;;5134747;27;20483;-66
2022/12/08 03:46:49;;;;;;;0.52;0.20;;;2.50;99.90;;;;;;5134745;27;20482;-66
2022/12/08 03:49:15;;;;;;;1.85;0.80;;;2.50;99.90;;;;;;5135249;27;20050;-66
2022/12/08 03:51:40;;;;;;;1.15;0.20;;;2.80;99.90;;;;;;5117392;27;20078;-66
2022/12/08 03:54:06;;;;;;;0.75;0.20;;;3.20;99.90;;;;;;5134622;27;20039;-67
2022/12/08 03:56:35;;;;;;;0.25;0.20;;;2.70;99.90;;;;;;5134972;28;20467;-67
2022/12/08 03:59:01;;;;;;;1.05;0.20;;;3.10;99.90;;;;;;5116329;28;20055;-67
2022/12/08 04:01:27;;;;;;;0.40;0.20;;;2.90;99.90;;;;;;5135158;28;20046;-67
2022/12/08 04:03:53;;;;;;;1.60;0.10;;;2.90;99.90;;;;;;5117203;28;20061;-67
2022/12/08 04:06:19;;;;;;;1.33;0.10;;;2.70;99.90;;;;;;5100291;28;20502;-67
2022/12/08 04:08:46;;;;;;;0.63;0.20;;;2.70;99.90;;;;;;5134534;28;20039;-66
2022/12/08 04:11:11;;;;;;;1.48;0.10;;;2.40;99.90;;;;;;5134486;28;20051;-66
2022/12/08 04:13:39;;;;;;;0.20;0.10;;;2.80;99.90;;;;;;5134549;28;20047;-66
2022/12/08 04:16:06;;;;;;;0.20;0.10;;;4.00;99.90;;;;;;5135249;28;20126;-66
2022/12/08 04:18:33;;;;;;;1.27;0.10;;;2.30;99.90;;;;;;5134417;28;20134;-66
2022/12/08 04:20:59;;;;;;;1.27;0.20;;;2.90;99.90;;;;;;5116658;28;20050;-66
2022/12/08 04:23:25;;;;;;;0.55;0.10;;;3.00;99.90;;;;;;5134410;28;20055;-65
2022/12/08 04:25:51;;;;;;;0.82;0.17;;;2.40;99.90;;;;;;5134250;28;20047;-65
2022/12/08 04:28:17;;;;;;;0.10;0.10;;;3.00;99.90;;;;;;5134639;28;20046;-65
2022/12/08 04:30:43;;;;;;;2.38;0.17;;;2.60;99.90;;;;;;5099606;28;20047;-65
2022/12/08 04:33:09;;;;;;;0.40;0.20;;;2.30;99.90;;;;;;5133977;28;20047;-65
2022/12/08 04:35:35;;;;;;;0.90;0.20;;;2.90;99.90;;;;;;5134480;28;20047;-65
2022/12/08 04:38:00;;;;;;;0.45;0.10;;;3.00;99.90;;;;;;5134236;28;20482;-65
2022/12/08 04:40:26;;;;;;;0.47;0.10;;;3.30;99.90;;;;;;5115638;28;20083;-65
2022/12/08 04:42:52;;;;;;;0.22;0.10;;;2.70;99.90;;;;;;5134430;28;20047;-65
2022/12/08 04:45:17;;;;;;;1.85;0.30;;;2.50;99.90;;;;;;5137855;27;20466;-65
2022/12/08 04:47:43;;;;;;;1.05;0.20;;;2.60;99.90;;;;;;5119778;27;20450;-65
2022/12/08 04:50:09;;;;;;;0.60;0.20;;;3.00;99.90;;;;;;5138016;27;20051;-66
2022/12/08 04:52:36;;;;;;;0.95;0.13;;;2.50;99.90;;;;;;5119572;27;20046;-66
2022/12/08 04:55:01;;;;;;;0.63;0.15;;;3.10;99.90;;;;;;5137956;27;20047;-65
2022/12/08 04:57:27;;;;;;;0.70;0.20;;;3.10;99.90;;;;;;5137962;27;20055;-66
2022/12/08 04:59:53;;;;;;;0.85;0.20;;;3.50;99.90;;;;;;5138396;27;20477;-66
2022/12/08 05:02:19;;;;;;;0.20;0.10;;;3.20;99.90;;;;;;5119197;27;20081;-66
2022/12/08 05:04:44;;;;;;;1.05;0.10;;;2.50;99.90;;;;;;5137684;27;20039;-66
2022/12/08 05:07:10;;;;;;;1.17;0.10;;;2.50;99.90;;;;;;5137711;27;20043;-66
2022/12/08 05:09:35;;;;;;;1.83;0.20;;;2.70;99.90;;;;;;5138200;27;20043;-66
2022/12/08 05:12:01;;;;;;;0.50;0.20;;;3.40;99.90;;;;;;5120099;27;20043;-66
2022/12/08 05:14:27;;;;;;;0.70;0.10;;;3.10;99.90;;;;;;5103376;27;20446;-66
2022/12/08 05:16:52;;;;;;;1.10;0.60;;;2.50;99.90;;;;;;5137507;27;20048;-65
2022/12/08 05:19:18;;;;;;;1.20;0.20;;;3.70;99.90;;;;;;5137449;27;20047;-66
2022/12/08 05:21:44;;;;;;;1.08;0.20;;;3.50;99.90;;;;;;5137971;27;20042;-66
2022/12/08 05:24:10;;;;;;;2.30;0.35;;;3.10;99.90;;;;;;5137263;27;20061;-66
2022/12/08 05:26:35;;;;;;;1.33;0.30;;;2.80;99.90;;;;;;5138183;27;20043;-66
2022/12/08 05:29:01;;;;;;;1.38;0.20;;;2.80;99.90;;;;;;5138150;27;20126;-66
2022/12/08 05:31:27;;;;;;;1.20;0.20;;;2.30;99.90;;;;;;5136973;27;20039;-66
2022/12/08 05:33:53;;;;;;;0.60;0.17;;;3.30;99.90;;;;;;5137568;27;20043;-65
2022/12/08 05:36:19;;;;;;;0.90;0.22;;;2.40;99.90;;;;;;5118985;27;20054;-65
2022/12/08 05:38:45;;;;;;;1.48;0.30;;;2.50;99.90;;;;;;5137716;27;20047;-65
2022/12/08 05:41:19;;;;;;;0.68;0.20;;;2.70;99.90;;;;;;5137559;27;20046;-66
2022/12/08 05:43:46;;;;;;;0.32;0.17;;;2.80;99.90;;;;;;5136950;27;20039;-65
2022/12/08 05:46:12;;;;;;;0.73;0.32;;;3.00;99.90;;;;;;5136961;27;20152;-65
2022/12/08 05:48:38;;;;;;;1.75;0.22;;;2.70;99.90;;;;;;5136620;27;20559;-65
2022/12/08 05:51:06;;;;;;;2.05;0.38;;;3.90;99.90;;;;;;5136616;27;20047;-65
2022/12/08 05:53:31;;;;;;;2.17;0.47;;;2.40;99.90;;;;;;5137400;27;20043;-65
2022/12/08 05:55:57;;;;;;;1.50;0.28;;;2.80;99.90;;;;;;5117548;27;20046;-65
2022/12/08 05:58:23;;;;;;;1.67;0.50;;;3.00;99.90;;;;;;5137289;27;20096;-65
2022/12/08 06:00:49;;;;;;;1.63;0.30;;;2.80;99.90;;;;;;5137219;27;20039;-65
2022/12/08 06:03:17;;;;;;;0.47;0.20;;;2.50;99.90;;;;;;5136668;27;20051;-65
2022/12/08 06:05:44;;;;;;;0.85;0.20;;;3.10;99.90;;;;;;5137106;27;20090;-65
2022/12/08 06:08:10;;;;;;;3.33;1.33;;;2.60;99.90;;;;;;5136488;27;20494;-65
2022/12/08 06:10:43;;;;;;;0.50;0.20;;;2.60;99.90;;;;;;5136574;27;20047;-65
2022/12/08 06:13:09;;;;;;;0.28;0.20;;;3.10;99.90;;;;;;5136144;27;20035;-65
2022/12/08 06:15:39;;;;;;;0.52;0.20;;;2.40;99.90;;;;;;5136382;27;20043;-65
2022/12/08 06:18:05;;;;;;;0.20;0.10;;;2.80;99.90;;;;;;5136901;27;20047;-65
2022/12/08 06:20:31;;;;;;;1.55;0.10;;;2.70;99.90;;;;;;5136299;27;20058;-65
2022/12/08 06:22:57;;;;;;;1.95;0.10;;;2.40;99.90;;;;;;5101896;27;20039;-65
2022/12/08 06:25:23;;;;;;;1.92;0.20;;;3.10;99.90;;;;;;5136671;27;20498;-65
2022/12/08 06:27:49;;;;;;;0.43;0.20;;;2.50;99.90;;;;;;5117838;27;20043;-65
2022/12/08 06:30:16;;;;;;;0.20;0.10;;;2.60;99.90;;;;;;5117701;27;20183;-65
2022/12/08 06:32:41;;;;;;;1.58;0.20;;;2.30;99.90;;;;;;5117725;27;20051;-65
2022/12/08 06:35:08;;;;;;;0.98;0.10;;;2.30;99.90;;;;;;5100990;27;20079;-65
2022/12/08 06:37:33;;;;;;;0.63;0.10;;;2.50;99.90;;;;;;5136231;27;20083;-65
2022/12/08 06:39:59;;;;;;;1.85;0.10;;;2.30;99.90;;;;;;5135909;27;20515;-65
2022/12/08 06:42:43;;;;;;;1.55;0.10;;;2.40;99.90;;;;;;5135797;27;20050;-65
2022/12/08 06:45:10;;;;;;;0.25;0.10;;;2.40;99.90;;;;;;5135786;27;20046;-65
2022/12/08 06:47:36;;;;;;;2.75;0.20;;;2.30;99.90;;;;;;5135727;27;20125;-65
2022/12/08 06:50:02;;;;;;;0.30;0.10;;;2.80;99.90;;;;;;5135666;27;20171;-65
2022/12/08 06:52:28;;;;;;;2.78;0.20;;;2.10;99.90;;;;;;5135296;27;20544;-65
2022/12/08 06:54:53;;;;;;;0.43;0.20;;;3.20;99.90;;;;;;5117533;27;20047;-65
2022/12/08 06:57:19;;;;;;;0.30;0.10;;;2.70;99.90;;;;;;5135684;27;20417;-65
2022/12/08 06:59:45;;;;;;;0.30;0.20;;;2.50;99.90;;;;;;5135861;27;20104;-65
2022/12/08 07:02:11;;;;;;;1.35;0.10;;;2.20;99.90;;;;;;5135466;27;20051;-65
2022/12/08 07:04:36;;;;;;;1.55;0.10;;;3.30;99.90;;;;;;5117077;27;20047;-65
2022/12/08 07:07:02;;;;;;;1.15;0.20;;;2.30;99.90;;;;;;5134515;27;20054;-65
2022/12/08 07:09:28;;;;;;;0.30;0.10;;;2.10;99.90;;;;;;5135745;27;20058;-65
2022/12/08 07:11:53;;;;;;;0.52;0.15;;;2.30;99.90;;;;;;5135473;27;20467;-66
2022/12/08 07:14:23;;;;;;;0.40;0.20;;;2.10;99.90;;;;;;5135239;27;20395;-65
2022/12/08 07:16:50;;;;;;;0.22;0.10;;;2.00;99.90;;;;;;5134894;27;20517;-66
2022/12/08 07:19:16;;;;;;;0.50;0.13;;;2.10;99.90;;;;;;5135965;27;20111;-65
2022/12/08 07:21:42;;;;;;;1.42;0.30;;;2.30;99.90;;;;;;5117081;27;20423;-65
2022/12/08 07:24:07;;;;;;;0.30;0.20;;;2.60;99.90;;;;;;5116646;27;20035;-65
2022/12/08 07:26:33;;;;;;;0.25;0.13;;;3.30;99.90;;;;;;5099720;27;20131;-65
2022/12/08 07:29:00;;;;;;;0.50;0.20;;;2.00;99.90;;;;;;5100738;27;20046;-65
2022/12/08 07:31:27;;;;;;;0.25;0.20;;;2.10;99.90;;;;;;5134927;27;20079;-66
2022/12/08 07:33:54;;;;;;;1.23;0.10;;;2.00;99.90;;;;;;5134993;27;20043;-65
2022/12/08 07:36:20;;;;;;;0.73;0.20;;;2.50;99.90;;;;;;5134955;27;20051;-65
2022/12/08 07:38:46;;;;;;;1.35;0.10;;;2.60;99.90;;;;;;5134849;27;20039;-65
2022/12/08 07:41:19;;;;;;;0.85;0.10;;;2.30;99.90;;;;;;5116854;27;20189;-65
2022/12/08 07:43:45;;;;;;;1.08;0.20;;;1.90;99.90;;;;;;5134732;27;20035;-65
2022/12/08 07:46:15;;;;;;;1.45;0.10;;;2.20;99.90;;;;;;5116707;28;20054;-65
2022/12/08 07:48:41;;;;;;;0.35;0.10;;;2.20;99.90;;;;;;5135368;27;20043;-65
2022/12/08 07:51:08;;;;;;;1.05;0.20;;;2.90;99.90;;;;;;5134948;27;20042;-65
2022/12/08 07:53:34;;;;;;;1.02;0.10;;;2.10;99.90;;;;;;5134323;27;20505;-65
2022/12/08 07:55:59;;;;;;;0.82;0.20;;;1.90;99.90;;;;;;5116265;27;20047;-65
2022/12/08 07:58:26;;;;;;;0.50;0.30;;;1.90;99.90;;;;;;5116216;28;20055;-65
2022/12/08 08:00:52;;;;;;;1.00;0.20;;;2.60;99.90;;;;;;5099239;28;20414;-65
2022/12/08 08:03:18;;;;;;;1.25;0.20;;;2.60;99.90;;;;;;5116861;28;20121;-65
2022/12/08 08:05:48;;;;;;;1.63;0.30;;;1.80;99.90;;;;;;5134773;28;20347;-65
2022/12/08 08:08:15;;;;;;;0.25;0.13;;;1.90;99.90;;;;;;5099196;28;20055;-65
2022/12/08 08:10:41;;;;;;;1.75;0.30;;;3.00;99.90;;;;;;5135319;28;20411;-65
2022/12/08 08:13:07;;;;;;;0.28;0.10;;;2.50;99.90;;;;;;5134402;28;20043;-66
2022/12/08 08:15:33;;;;;;;0.10;0.10;;;2.30;99.90;;;;;;5116240;28;20076;-65
2022/12/08 08:17:58;;;;;;;0.20;0.10;;;1.90;99.90;;;;;;5134390;27;20054;-65
2022/12/08 08:20:24;;;;;;;2.92;0.20;;;2.00;99.90;;;;;;5120019;27;20043;-66
2022/12/08 08:22:51;;;;;;;1.25;0.50;;;1.90;99.90;;;;;;5138630;27;20059;-66
2022/12/08 08:25:17;;;;;;;0.80;0.20;;;2.60;99.90;;;;;;5138530;27;20046;-65
2022/12/08 08:27:43;;;;;;;2.03;0.30;;;1.70;99.90;;;;;;5103336;27;20054;-66
2022/12/08 08:30:11;;;;;;;2.78;1.00;;;2.20;99.90;;;;;;5138419;27;20039;-66
2022/12/08 08:32:37;;;;;;;4.18;0.80;;;1.70;99.90;;;;;;5120424;27;20493;-66
2022/12/08 08:35:04;;;;;;;0.40;0.28;;;2.00;99.90;;;;;;5138440;27;20041;-66
2022/12/08 08:37:29;;;;;;;1.55;0.50;;;1.90;99.90;;;;;;5139349;27;20054;-66
2022/12/08 08:39:55;;;;;;;2.00;0.50;;;2.50;99.90;;;;;;5120083;27;20047;-66
2022/12/08 08:42:21;;;;;;;1.15;0.50;;;3.10;99.90;;;;;;5139036;27;20091;-66
2022/12/08 08:44:47;;;;;;;1.35;0.43;;;2.50;99.90;;;;;;5138228;27;20126;-65
2022/12/08 08:47:13;;;;;;;1.73;0.50;;;1.90;99.90;;;;;;5120203;27;20095;-66
2022/12/08 08:49:38;;;;;;;1.38;0.50;;;2.00;99.90;;;;;;5138295;27;20047;-66
2022/12/08 08:52:05;;;;;;;1.88;0.40;;;1.80;99.90;;;;;;5120847;27;20074;-65
2022/12/08 08:54:31;;;;;;;1.33;0.40;;;2.50;99.90;;;;;;5119779;27;20043;-65
2022/12/08 08:56:58;;;;;;;0.80;0.40;;;1.80;99.90;;;;;;5137722;27;20055;-65
2022/12/08 08:59:25;;;;;;;1.38;0.57;;;3.30;99.90;;;;;;5138018;27;20498;-65
2022/12/08 09:01:51;;;;;;;2.55;0.57;;;1.90;99.90;;;;;;5138522;27;20051;-65
2022/12/08 09:04:17;;;;;;;1.77;0.70;;;2.80;99.90;;;;;;5137836;27;20039;-65
2022/12/08 09:06:44;;;;;;;2.35;0.60;;;2.00;99.90;;;;;;5137895;27;20039;-66
2022/12/08 09:09:10;;;;;;;0.90;0.50;;;2.30;99.90;;;;;;5138120;27;20425;-66
2022/12/08 09:11:36;;;;;;;1.35;0.50;;;2.40;99.90;;;;;;5119645;27;20483;-66
2022/12/08 09:14:02;;;;;;;2.20;0.60;;;2.10;99.90;;;;;;5138324;27;20047;-67
2022/12/08 09:16:28;;;;;;;0.80;0.50;;;2.20;99.90;;;;;;5120173;27;20047;-69
2022/12/08 09:18:54;;;;;;;1.13;0.50;;;2.00;99.90;;;;;;5138501;27;20406;-68
2022/12/08 09:21:22;;;;;;;1.77;0.70;;;2.40;99.90;;;;;;5119251;27;20043;-68
2022/12/08 09:23:49;;;;;;;1.02;0.60;;;2.10;99.90;;;;;;5137462;27;20093;-68
2022/12/08 09:26:15;;;;;;;1.13;0.60;;;2.80;99.90;;;;;;5137500;27;20043;-68
2022/12/08 09:28:45;;;;;;;1.08;0.60;;;2.40;99.90;;;;;;5119337;27;20043;-68
2022/12/08 09:31:13;;;;;;;2.97;1.50;;;2.20;99.90;;;;;;5101754;27;20073;-68
2022/12/08 09:33:38;;;;;;;1.95;0.70;;;2.80;99.90;;;;;;5119304;27;20051;-68
2022/12/08 09:36:05;;;;;;;1.58;0.60;;;2.50;99.90;;;;;;5137301;27;20050;-68
2022/12/08 09:38:31;;;;;;;0.88;0.50;;;2.40;99.90;;;;;;5119447;27;20051;-68
2022/12/08 09:40:57;;;;;;;3.20;0.60;;;2.40;99.90;;;;;;5137463;27;20123;-69
2022/12/08 09:43:23;;;;;;;3.15;0.68;;;3.10;99.90;;;;;;5102834;27;20052;-68
2022/12/08 09:45:50;;;;;;;0.88;0.50;;;2.50;99.90;;;;;;5137087;27;20043;-68
2022/12/08 09:48:26;;;;;;;2.10;0.47;;;3.10;99.90;;;;;;5118760;27;20073;-67
2022/12/08 09:50:55;;;;;;;0.88;0.60;;;3.50;99.90;;;;;;5137518;27;20122;-67
2022/12/08 09:53:33;;;;;;;6.47;0.93;;;2.30;99.90;;;;;;5137025;27;20051;-66
2022/12/08 09:56:11;;;;;;;2.60;0.70;;;2.60;99.90;;;;;;5119149;27;20058;-67
2022/12/08 09:58:55;;;;;;;4.10;0.95;;;2.40;99.90;;;;;;5138054;27;20455;-67
2022/12/08 10:01:21;;;;;;;;;;;2.50;99.90;;;;;;5137788;27;20088;-67
2022/12/08 10:03:47;;;;;;;1.67;0.70;;;2.70;99.90;;;;;;5118508;27;19970;-67
2022/12/08 10:06:31;;;;;;;1.58;0.40;;;3.20;99.90;;;;;;5136649;27;20047;-66
2022/12/08 10:09:24;;;;;;;2.13;0.50;;;2.60;99.90;;;;;;5136564;27;20082;-67
2022/12/08 10:12:01;;;;;;;1.70;0.57;;;2.70;99.90;;;;;;5136491;27;20047;-67
2022/12/08 10:14:32;;;;;;;2.47;0.50;;;2.80;99.90;;;;;;5136551;27;20042;-67
2022/12/08 10:17:18;;;;;;;1.42;0.50;;;3.70;99.90;;;;;;5118387;27;20159;-66
2022/12/08 10:19:47;;;;;;;1.92;0.40;;;2.80;99.90;;;;;;5136442;27;20039;-67
2022/12/08 10:22:24;;;;;;;3.13;0.40;;;3.30;99.90;;;;;;5136377;27;20466;-67
2022/12/08 10:24:57;;;;;;;2.70;0.40;;;3.60;99.90;;;;;;5118014;27;20514;-66
2022/12/08 10:27:24;;;;;;;1.65;0.32;;;2.80;99.90;;;;;;5136310;27;20139;-66
2022/12/08 10:29:50;;;;;;;2.45;0.50;;;3.30;99.90;;;;;;5136189;27;20047;-66
2022/12/08 10:32:21;;;;;;;1.17;0.40;;;3.30;99.90;;;;;;5136433;27;20047;-66
2022/12/08 10:35:07;;;;;;;1.45;0.40;;;3.50;99.90;;;;;;5101061;27;20047;-66
2022/12/08 10:37:33;;;;;;;1.83;0.40;;;3.20;99.90;;;;;;5135983;27;20076;-66
2022/12/08 10:40:16;;;;;;;5.82;0.90;;;2.80;99.90;;;;;;5135984;27;20394;-66
2022/12/08 10:42:46;;;;;;;1.60;0.50;;;3.10;99.90;;;;;;5117407;27;20035;-66
2022/12/08 10:45:23;;;;;;;1.83;0.40;;;3.60;99.90;;;;;;5117890;27;20046;-66
2022/12/08 10:48:02;;;;;;;1.80;0.50;;;3.10;99.90;;;;;;5136448;27;20096;-66
2022/12/08 10:50:30;;;;;;;1.85;0.50;;;3.80;99.90;;;;;;5117449;27;20057;-66
2022/12/08 10:53:00;;;;;;;1.50;0.40;;;3.20;99.90;;;;;;5135753;27;20046;-66
2022/12/08 10:55:27;;;;;;;0.75;0.30;;;3.30;99.90;;;;;;5100384;27;20049;-66
2022/12/08 10:57:52;;;;;;;2.05;0.50;;;3.90;99.90;;;;;;5116994;27;20483;-66
2022/12/08 11:00:26;;;;;;;2.15;0.40;;;3.80;99.90;;;;;;5135613;27;20100;-66
2022/12/08 11:03:02;;;;;;;;;;;3.90;99.90;;;;;;5136331;27;20099;-66
2022/12/08 11:05:32;;;;;;;2.13;0.60;;;3.20;99.90;;;;;;5135452;27;19919;-66
2022/12/08 11:07:59;;;;;;;1.45;0.50;;;3.50;99.90;;;;;;5118026;27;20378;-66
2022/12/08 11:10:41;;;;;;;1.85;0.80;;;3.40;99.90;;;;;;5135417;27;20039;-66
2022/12/08 11:13:25;;;;;;;2.20;0.40;;;3.00;99.90;;;;;;5135675;27;20465;-66
2022/12/08 11:15:53;;;;;;;1.42;0.40;;;3.10;99.90;;;;;;5136161;27;20043;-66
2022/12/08 11:18:27;;;;;;;1.73;0.65;;;3.70;99.90;;;;;;5100065;27;20051;-67
2022/12/08 11:20:59;;;;;;;3.28;0.73;;;3.20;99.90;;;;;;5135475;27;20421;-66
2022/12/08 11:23:27;;;;;;;4.22;1.13;;;3.90;99.90;;;;;;5135132;27;20050;-66
2022/12/08 11:25:56;;;;;;;3.75;0.75;;;3.60;99.90;;;;;;5134683;27;20499;-66
2022/12/08 11:28:23;;;;;;;1.60;0.52;;;3.50;99.90;;;;;;5135518;27;20478;-67
2022/12/08 11:30:56;;;;;;;5.72;0.65;;;3.50;99.90;;;;;;5116859;27;20101;-66
2022/12/08 11:33:26;;;;;;;1.58;0.63;;;3.60;99.90;;;;;;5135090;27;20398;-67
2022/12/08 11:36:08;;;;;;;2.75;0.50;;;4.10;99.90;;;;;;5135197;27;20047;-67
2022/12/08 11:38:46;;;;;;;1.95;0.70;;;3.60;99.90;;;;;;5135509;27;20055;-67
2022/12/08 11:41:23;;;;;;;2.42;0.50;;;3.50;99.90;;;;;;5135425;27;20098;-67
2022/12/08 11:44:25;;;;;;;2.13;0.47;;;4.50;99.90;;;;;;5135361;27;20469;-67
2022/12/08 11:46:59;;;;;;;2.00;0.60;;;3.60;99.90;;;;;;5135647;27;20047;-67
2022/12/08 11:49:35;;;;;;;1.55;0.50;;;3.80;99.90;;;;;;5116568;27;20047;-67
2022/12/08 11:52:20;;;;;;;1.65;0.40;;;4.10;99.90;;;;;;5117637;27;20176;-67
2022/12/08 11:54:53;;;;;;;2.85;0.50;;;3.70;99.90;;;;;;5134831;27;20535;-67
2022/12/08 11:57:22;;;;;;;2.42;0.30;;;4.10;99.90;;;;;;5117021;27;20059;-67
2022/12/08 11:59:55;;;;;;;1.85;0.40;;;4.50;99.90;;;;;;5134794;27;20486;-67
2022/12/08 12:02:23;;;;;;;1.75;0.30;;;3.90;99.90;;;;;;5116450;28;20112;-67
2022/12/08 12:04:49;;;;;;;3.92;0.52;;;4.50;99.90;;;;;;5134855;28;20043;-67
2022/12/08 12:07:45;;;;;;;1.00;0.30;;;4.30;99.90;;;;;;5135281;28;20050;-67
2022/12/08 12:10:46;;;;;;;2.13;0.20;;;4.00;99.90;;;;;;5134682;28;20126;-67
2022/12/08 12:13:53;;;;;;;0.98;0.40;;;4.00;99.90;;;;;;5102248;28;20147;-67
2022/12/08 12:16:35;;;;;;;0.60;0.28;;;4.10;99.90;;;;;;5135293;28;20047;-66
2022/12/08 12:19:09;;;;;;;0.60;0.30;;;3.90;99.90;;;;;;5116805;28;20051;-67
2022/12/08 12:21:42;;;;;;;2.05;0.30;;;4.00;99.90;;;;;;5134676;28;20043;-67
2022/12/08 12:24:32;;;;;;;0.20;0.20;;;4.10;99.90;;;;;;5134431;28;20460;-67
2022/12/08 12:27:12;;;;;;;2.65;0.30;;;4.00;99.90;;;;;;5134581;28;20110;-67
2022/12/08 12:29:45;;;;;;;1.40;0.20;;;4.10;99.90;;;;;;5151130;27;20053;-67
2022/12/08 12:32:12;;;;;;;1.65;0.30;;;4.10;99.90;;;;;;5134574;28;20054;-67
2022/12/08 12:34:48;;;;;;;0.82;0.30;;;4.40;99.90;;;;;;5099347;28;20072;-67
2022/12/08 12:37:21;;;;;;;2.05;0.30;;;4.10;99.90;;;;;;5134475;28;20167;-67
2022/12/08 12:39:56;;;;;;;1.35;0.40;;;4.30;99.90;;;;;;5116094;28;20055;-67
2022/12/08 12:42:42;;;;;;;1.75;0.30;;;3.90;99.90;;;;;;5134290;28;20051;-67
2022/12/08 12:45:16;;;;;;;1.95;0.35;;;4.40;99.90;;;;;;5134195;28;20039;-67
2022/12/08 12:47:55;;;;;;;1.10;0.30;;;4.20;99.90;;;;;;5115971;28;20134;-67
2022/12/08 12:50:33;;;;;;;1.00;0.30;;;4.20;99.90;;;;;;5134243;28;20051;-67
2022/12/08 12:52:59;;;;;;;3.78;0.40;;;4.90;99.90;;;;;;5134139;28;20043;-67
2022/12/08 12:55:27;;;;;;;1.35;0.40;;;5.00;99.90;;;;;;5133843;28;20047;-68
2022/12/08 12:57:55;;;;;;;1.10;0.30;;;4.70;99.90;;;;;;5134164;28;20063;-69
2022/12/08 13:00:24;;;;;;;0.95;0.30;;;4.40;99.90;;;;;;5116736;28;20375;-68
2022/12/08 13:02:53;;;;;;;1.95;0.50;;;4.30;99.90;;;;;;5134045;28;20082;-68
2022/12/08 13:05:33;;;;;;;1.08;0.40;;;4.90;99.90;;;;;;5117805;27;20043;-68
2022/12/08 13:08:15;;;;;;;2.97;0.50;;;4.40;99.90;;;;;;5137786;27;20047;-68
2022/12/08 13:10:57;;;;;;;1.00;0.30;;;4.80;99.90;;;;;;5120275;27;20115;-68
2022/12/08 13:13:23;;;;;;;3.78;0.57;;;5.30;99.90;;;;;;5138179;27;20043;-68
2022/12/08 13:15:53;;;;;;;2.00;0.40;;;4.50;99.90;;;;;;5137940;27;20054;-68